sensor_id;sensor_type;location;lat;lon;timestamp;temperature;humidity
53410;DHT22;66590;50.734;4.246;2023-02-01T00:01:07;7.30;99.90
53410;DHT22;66590;50.734;4.246;2023-02-01T00:03:34;7.30;99.90
53410;DHT22;66590;50.734;4.246;2023-02-01T00:06:03;7.30;99.90
53410;DHT22;66590;50.734;4.246;2023-02-01T00:08:30;7.40;99.90
53410;DHT22;66590;50.734;4.246;2023-02-01T00:11:03;7.40;99.90
53410;DHT22;66590;50.734;4.246;2023-02-01T00:13:31;7.20;99.90
53410;DHT22;66590;50.734;4.246;2023-02-01T00:16:06;7.20;99.90
53410;DHT22;66590;50.734;4.246;2023-02-01T00:18:34;7.20;99.90
53410;DHT22;66590;50.734;4.246;2023-02-01T00:21:01;7.20;99.90
53410;DHT22;66590;50.734;4.246;2023-02-01T00:23:31;7.30;99.90
53410;DHT22;66590;50.734;4.246;2023-02-01T00:26:01;7.30;99.90
53410;DHT22;66590;50.734;4.246;2023-02-01T00:28:28;7.20;99.90
53410;DHT22;66590;50.734;4.246;2023-02-01T00:30:56;7.20;99.90
53410;DHT22;66590;50.734;4.246;2023-02-01T00:33:24;7.10;99.90
53410;DHT22;66590;50.734;4.246;2023-02-01T00:35:51;7.10;99.90
53410;DHT22;66590;50.734;4.246;2023-02-01T00:38:18;7.10;99.90
53410;DHT22;66590;50.734;4.246;2023-02-01T00:40:45;7.10;99.90
53410;DHT22;66590;50.734;4.246;2023-02-01T00:43:13;7.10;99.90
53410;DHT22;66590;50.734;4.246;2023-02-01T00:45:41;7.20;99.90
53410;DHT22;66590;50.734;4.246;2023-02-01T00:48:08;7.20;99.90
53410;DHT22;66590;50.734;4.246;2023-02-01T00:50:46;7.20;99.90
53410;DHT22;66590;50.734;4.246;2023-02-01T00:53:13;7.20;99.90
53410;DHT22;66590;50.734;4.246;2023-02-01T00:55:40;7.20;99.90
53410;DHT22;66590;50.734;4.246;2023-02-01T00:58:11;7.20;99.90
53410;DHT22;66590;50.734;4.246;2023-02-01T01:00:44;7.10;99.90
53410;DHT22;66590;50.734;4.246;2023-02-01T01:03:11;7.00;99.90
53410;DHT22;66590;50.734;4.246;2023-02-01T01:05:38;7.10;99.90
53410;DHT22;66590;50.734;4.246;2023-02-01T01:08:05;7.00;99.90
53410;DHT22;66590;50.734;4.246;2023-02-01T01:10:42;7.00;99.90
53410;DHT22;66590;50.734;4.246;2023-02-01T01:13:24;7.10;99.90
53410;DHT22;66590;50.734;4.246;2023-02-01T01:15:53;7.10;99.90
53410;DHT22;66590;50.734;4.246;2023-02-01T01:18:20;7.10;99.90
53410;DHT22;66590;50.734;4.246;2023-02-01T01:20:47;7.20;99.90
53410;DHT22;66590;50.734;4.246;2023-02-01T01:23:15;7.10;99.90
53410;DHT22;66590;50.734;4.246;2023-02-01T01:25:42;7.10;99.90
53410;DHT22;66590;50.734;4.246;2023-02-01T01:28:09;7.20;99.90
53410;DHT22;66590;50.734;4.246;2023-02-01T01:30:41;7.10;99.90
53410;DHT22;66590;50.734;4.246;2023-02-01T01:33:09;7.10;99.90
53410;DHT22;66590;50.734;4.246;2023-02-01T01:35:37;7.10;99.90
53410;DHT22;66590;50.734;4.246;2023-02-01T01:38:04;7.00;99.90
53410;DHT22;66590;50.734;4.246;2023-02-01T01:40:31;7.10;99.90
53410;DHT22;66590;50.734;4.246;2023-02-01T01:42:58;7.10;99.90
53410;DHT22;66590;50.734;4.246;2023-02-01T01:45:27;7.10;99.90
53410;DHT22;66590;50.734;4.246;2023-02-01T01:47:56;7.00;99.90
53410;DHT22;66590;50.734;4.246;2023-02-01T01:50:35;7.10;99.90
53410;DHT22;66590;50.734;4.246;2023-02-01T01:53:06;7.00;99.90
53410;DHT22;66590;50.734;4.246;2023-02-01T01:55:38;7.00;99.90
53410;DHT22;66590;50.734;4.246;2023-02-01T01:58:10;7.10;99.90
53410;DHT22;66590;50.734;4.246;2023-02-01T02:00:37;7.10;99.90
53410;DHT22;66590;50.734;4.246;2023-02-01T02:03:11;7.00;99.90
53410;DHT22;66590;50.734;4.246;2023-02-01T02:05:45;7.00;99.90
53410;DHT22;66590;50.734;4.246;2023-02-01T02:08:12;7.00;99.90
53410;DHT22;66590;50.734;4.246;2023-02-01T02:10:40;7.10;99.90
53410;DHT22;66590;50.734;4.246;2023-02-01T02:13:07;7.10;99.90
53410;DHT22;66590;50.734;4.246;2023-02-01T02:15:35;7.10;99.90
53410;DHT22;66590;50.734;4.246;2023-02-01T02:18:08;7.10;99.90
53410;DHT22;66590;50.734;4.246;2023-02-01T02:21:10;7.10;99.90
53410;DHT22;66590;50.734;4.246;2023-02-01T02:27:00;7.00;99.90
53410;DHT22;66590;50.734;4.246;2023-02-01T02:29:56;7.00;99.90
53410;DHT22;66590;50.734;4.246;2023-02-01T02:32:50;7.10;99.90
53410;DHT22;66590;50.734;4.246;2023-02-01T02:35:26;7.20;99.90
53410;DHT22;66590;50.734;4.246;2023-02-01T02:38:02;7.10;99.90
53410;DHT22;66590;50.734;4.246;2023-02-01T02:40:35;7.10;99.90
53410;DHT22;66590;50.734;4.246;2023-02-01T02:43:09;7.10;99.90
53410;DHT22;66590;50.734;4.246;2023-02-01T02:45:47;7.10;99.90
53410;DHT22;66590;50.734;4.246;2023-02-01T02:48:20;7.00;99.90
53410;DHT22;66590;50.734;4.246;2023-02-01T02:50:54;7.10;99.90
53410;DHT22;66590;50.734;4.246;2023-02-01T02:53:28;7.10;99.90
53410;DHT22;66590;50.734;4.246;2023-02-01T02:55:56;7.10;99.90
53410;DHT22;66590;50.734;4.246;2023-02-01T02:58:24;7.10;99.90
53410;DHT22;66590;50.734;4.246;2023-02-01T03:00:51;7.20;99.90
53410;DHT22;66590;50.734;4.246;2023-02-01T03:03:19;7.10;99.90
53410;DHT22;66590;50.734;4.246;2023-02-01T03:05:48;7.00;99.90
53410;DHT22;66590;50.734;4.246;2023-02-01T03:08:18;7.10;99.90
53410;DHT22;66590;50.734;4.246;2023-02-01T03:10:53;6.90;99.90
53410;DHT22;66590;50.734;4.246;2023-02-01T03:13:28;6.80;99.90
53410;DHT22;66590;50.734;4.246;2023-02-01T03:16:02;6.80;99.90
53410;DHT22;66590;50.734;4.246;2023-02-01T03:18:35;6.70;99.90
53410;DHT22;66590;50.734;4.246;2023-02-01T03:21:09;6.70;99.90
53410;DHT22;66590;50.734;4.246;2023-02-01T03:23:38;6.80;99.90
53410;DHT22;66590;50.734;4.246;2023-02-01T03:26:09;6.80;99.90
53410;DHT22;66590;50.734;4.246;2023-02-01T03:28:39;6.60;99.90
53410;DHT22;66590;50.734;4.246;2023-02-01T03:31:09;6.60;99.90
53410;DHT22;66590;50.734;4.246;2023-02-01T03:33:37;6.50;99.90
53410;DHT22;66590;50.734;4.246;2023-02-01T03:36:17;6.60;99.90
53410;DHT22;66590;50.734;4.246;2023-02-01T03:38:51;6.50;99.90
53410;DHT22;66590;50.734;4.246;2023-02-01T03:41:28;6.50;99.90
53410;DHT22;66590;50.734;4.246;2023-02-01T03:44:01;6.50;99.90
53410;DHT22;66590;50.734;4.246;2023-02-01T03:46:33;6.50;99.90
53410;DHT22;66590;50.734;4.246;2023-02-01T03:49:05;6.50;99.90
53410;DHT22;66590;50.734;4.246;2023-02-01T03:51:37;6.40;99.90
53410;DHT22;66590;50.734;4.246;2023-02-01T03:54:10;6.30;99.90
53410;DHT22;66590;50.734;4.246;2023-02-01T03:56:40;6.40;99.90
53410;DHT22;66590;50.734;4.246;2023-02-01T03:59:09;6.40;99.90
53410;DHT22;66590;50.734;4.246;2023-02-01T04:01:36;6.30;99.90
53410;DHT22;66590;50.734;4.246;2023-02-01T04:04:03;6.20;99.90
53410;DHT22;66590;50.734;4.246;2023-02-01T04:06:30;6.20;99.90
53410;DHT22;66590;50.734;4.246;2023-02-01T04:08:57;6.10;99.90
53410;DHT22;66590;50.734;4.246;2023-02-01T04:11:26;6.10;99.90
53410;DHT22;66590;50.734;4.246;2023-02-01T04:13:53;6.20;99.90
53410;DHT22;66590;50.734;4.246;2023-02-01T04:16:20;6.10;99.90
53410;DHT22;66590;50.734;4.246;2023-02-01T04:18:47;6.10;99.90
53410;DHT22;66590;50.734;4.246;2023-02-01T04:21:14;6.00;99.90
53410;DHT22;66590;50.734;4.246;2023-02-01T04:23:41;6.00;99.90
53410;DHT22;66590;50.734;4.246;2023-02-01T04:26:08;6.00;99.90
53410;DHT22;66590;50.734;4.246;2023-02-01T04:28:37;6.00;99.90
53410;DHT22;66590;50.734;4.246;2023-02-01T04:31:04;5.90;99.90
53410;DHT22;66590;50.734;4.246;2023-02-01T04:33:31;5.90;99.90
53410;DHT22;66590;50.734;4.246;2023-02-01T04:35:58;5.70;99.90
53410;DHT22;66590;50.734;4.246;2023-02-01T04:38:26;5.70;99.90
53410;DHT22;66590;50.734;4.246;2023-02-01T04:40:53;5.70;99.90
53410;DHT22;66590;50.734;4.246;2023-02-01T04:43:20;5.70;99.90
53410;DHT22;66590;50.734;4.246;2023-02-01T04:45:49;5.70;99.90
53410;DHT22;66590;50.734;4.246;2023-02-01T04:48:17;5.60;99.90
53410;DHT22;66590;50.734;4.246;2023-02-01T04:50:49;5.60;99.90
53410;DHT22;66590;50.734;4.246;2023-02-01T04:53:16;5.70;99.90
53410;DHT22;66590;50.734;4.246;2023-02-01T04:55:44;5.60;99.90
53410;DHT22;66590;50.734;4.246;2023-02-01T04:58:12;5.60;99.90
53410;DHT22;66590;50.734;4.246;2023-02-01T05:00:44;5.60;99.90
53410;DHT22;66590;50.734;4.246;2023-02-01T05:03:14;5.50;99.90
53410;DHT22;66590;50.734;4.246;2023-02-01T05:05:42;5.50;99.90
53410;DHT22;66590;50.734;4.246;2023-02-01T05:08:11;5.60;99.90
53410;DHT22;66590;50.734;4.246;2023-02-01T05:10:39;5.50;99.90
53410;DHT22;66590;50.734;4.246;2023-02-01T05:13:07;5.50;99.90
53410;DHT22;66590;50.734;4.246;2023-02-01T05:15:34;5.40;99.90
53410;DHT22;66590;50.734;4.246;2023-02-01T05:18:01;5.30;99.90
53410;DHT22;66590;50.734;4.246;2023-02-01T05:20:29;5.40;99.90
53410;DHT22;66590;50.734;4.246;2023-02-01T05:22:56;5.30;99.90
53410;DHT22;66590;50.734;4.246;2023-02-01T05:25:23;5.20;99.90
53410;DHT22;66590;50.734;4.246;2023-02-01T05:27:53;5.20;99.90
53410;DHT22;66590;50.734;4.246;2023-02-01T05:30:20;5.10;99.90
53410;DHT22;66590;50.734;4.246;2023-02-01T05:32:50;5.20;99.90
53410;DHT22;66590;50.734;4.246;2023-02-01T05:35:17;5.20;99.90
53410;DHT22;66590;50.734;4.246;2023-02-01T05:37:45;5.10;99.90
53410;DHT22;66590;50.734;4.246;2023-02-01T05:40:12;5.00;99.90
53410;DHT22;66590;50.734;4.246;2023-02-01T05:42:40;5.00;99.90
53410;DHT22;66590;50.734;4.246;2023-02-01T05:45:08;5.00;99.90
53410;DHT22;66590;50.734;4.246;2023-02-01T05:47:35;5.00;99.90
53410;DHT22;66590;50.734;4.246;2023-02-01T05:50:02;5.10;99.90
53410;DHT22;66590;50.734;4.246;2023-02-01T05:52:33;5.00;99.90
53410;DHT22;66590;50.734;4.246;2023-02-01T05:55:01;5.00;99.90
53410;DHT22;66590;50.734;4.246;2023-02-01T05:57:29;5.10;99.90
53410;DHT22;66590;50.734;4.246;2023-02-01T05:59:56;5.00;99.90
53410;DHT22;66590;50.734;4.246;2023-02-01T06:02:26;5.00;99.90
53410;DHT22;66590;50.734;4.246;2023-02-01T06:04:53;4.90;99.90
53410;DHT22;66590;50.734;4.246;2023-02-01T06:07:21;4.90;99.90
53410;DHT22;66590;50.734;4.246;2023-02-01T06:09:48;4.90;99.90
53410;DHT22;66590;50.734;4.246;2023-02-01T06:12:21;4.90;99.90
53410;DHT22;66590;50.734;4.246;2023-02-01T06:14:48;4.80;99.90
53410;DHT22;66590;50.734;4.246;2023-02-01T06:17:15;4.90;99.90
53410;DHT22;66590;50.734;4.246;2023-02-01T06:19:42;4.90;99.90
53410;DHT22;66590;50.734;4.246;2023-02-01T06:22:09;4.80;99.90
53410;DHT22;66590;50.734;4.246;2023-02-01T06:24:36;4.80;99.90
53410;DHT22;66590;50.734;4.246;2023-02-01T06:27:03;4.80;99.90
53410;DHT22;66590;50.734;4.246;2023-02-01T06:29:32;4.80;99.90
53410;DHT22;66590;50.734;4.246;2023-02-01T06:31:59;4.70;99.90
53410;DHT22;66590;50.734;4.246;2023-02-01T06:34:26;4.70;99.90
53410;DHT22;66590;50.734;4.246;2023-02-01T06:36:53;4.70;99.90
53410;DHT22;66590;50.734;4.246;2023-02-01T06:39:20;4.80;99.90
53410;DHT22;66590;50.734;4.246;2023-02-01T06:41:51;4.70;99.90
53410;DHT22;66590;50.734;4.246;2023-02-01T06:44:18;4.70;99.90
53410;DHT22;66590;50.734;4.246;2023-02-01T06:46:46;4.70;99.90
53410;DHT22;66590;50.734;4.246;2023-02-01T06:49:13;4.60;99.90
53410;DHT22;66590;50.734;4.246;2023-02-01T06:51:40;4.60;99.90
53410;DHT22;66590;50.734;4.246;2023-02-01T06:54:10;4.70;99.90
53410;DHT22;66590;50.734;4.246;2023-02-01T06:56:38;4.70;99.90
53410;DHT22;66590;50.734;4.246;2023-02-01T06:59:05;4.70;99.90
53410;DHT22;66590;50.734;4.246;2023-02-01T07:01:33;4.70;99.90
53410;DHT22;66590;50.734;4.246;2023-02-01T07:04:02;4.60;99.90
53410;DHT22;66590;50.734;4.246;2023-02-01T07:06:29;4.60;99.90
53410;DHT22;66590;50.734;4.246;2023-02-01T07:08:57;4.60;99.90
53410;DHT22;66590;50.734;4.246;2023-02-01T07:11:24;4.60;99.90
53410;DHT22;66590;50.734;4.246;2023-02-01T07:13:51;4.60;99.90
53410;DHT22;66590;50.734;4.246;2023-02-01T07:16:20;4.70;99.90
53410;DHT22;66590;50.734;4.246;2023-02-01T07:18:50;4.60;99.90
53410;DHT22;66590;50.734;4.246;2023-02-01T07:21:19;4.70;99.90
53410;DHT22;66590;50.734;4.246;2023-02-01T07:23:46;4.60;99.90
53410;DHT22;66590;50.734;4.246;2023-02-01T07:26:14;4.70;99.90
53410;DHT22;66590;50.734;4.246;2023-02-01T07:28:41;4.70;99.90
53410;DHT22;66590;50.734;4.246;2023-02-01T07:31:11;4.70;99.90
53410;DHT22;66590;50.734;4.246;2023-02-01T07:33:39;4.70;99.90
53410;DHT22;66590;50.734;4.246;2023-02-01T07:36:09;4.70;99.90
53410;DHT22;66590;50.734;4.246;2023-02-01T07:38:39;4.70;99.90
53410;DHT22;66590;50.734;4.246;2023-02-01T07:41:07;4.60;99.90
53410;DHT22;66590;50.734;4.246;2023-02-01T07:43:37;4.60;99.90
53410;DHT22;66590;50.734;4.246;2023-02-01T07:46:05;4.50;99.90
53410;DHT22;66590;50.734;4.246;2023-02-01T07:48:33;4.60;99.90
53410;DHT22;66590;50.734;4.246;2023-02-01T07:51:02;4.60;99.90
53410;DHT22;66590;50.734;4.246;2023-02-01T07:53:30;4.70;99.90
53410;DHT22;66590;50.734;4.246;2023-02-01T07:56:02;4.60;99.90
53410;DHT22;66590;50.734;4.246;2023-02-01T07:58:30;4.60;99.90
53410;DHT22;66590;50.734;4.246;2023-02-01T08:00:57;4.60;99.90
53410;DHT22;66590;50.734;4.246;2023-02-01T08:03:24;4.70;99.90
53410;DHT22;66590;50.734;4.246;2023-02-01T08:05:54;4.80;99.90
53410;DHT22;66590;50.734;4.246;2023-02-01T08:08:22;4.80;99.90
53410;DHT22;66590;50.734;4.246;2023-02-01T08:10:49;4.90;99.90
53410;DHT22;66590;50.734;4.246;2023-02-01T08:13:17;4.90;99.90
53410;DHT22;66590;50.734;4.246;2023-02-01T08:15:44;4.90;99.90
53410;DHT22;66590;50.734;4.246;2023-02-01T08:18:11;5.00;99.90
53410;DHT22;66590;50.734;4.246;2023-02-01T08:20:39;5.00;99.90
53410;DHT22;66590;50.734;4.246;2023-02-01T08:23:07;5.10;99.90
53410;DHT22;66590;50.734;4.246;2023-02-01T08:25:35;5.10;99.90
53410;DHT22;66590;50.734;4.246;2023-02-01T08:28:02;5.20;99.90
53410;DHT22;66590;50.734;4.246;2023-02-01T08:30:30;5.10;99.90
53410;DHT22;66590;50.734;4.246;2023-02-01T08:32:58;5.20;99.90
53410;DHT22;66590;50.734;4.246;2023-02-01T08:35:25;5.20;99.90
53410;DHT22;66590;50.734;4.246;2023-02-01T08:38:08;5.20;99.90
53410;DHT22;66590;50.734;4.246;2023-02-01T08:40:35;5.40;99.90
53410;DHT22;66590;50.734;4.246;2023-02-01T08:43:03;5.50;99.90
53410;DHT22;66590;50.734;4.246;2023-02-01T08:45:31;5.50;99.90
53410;DHT22;66590;50.734;4.246;2023-02-01T08:47:59;5.50;99.90
53410;DHT22;66590;50.734;4.246;2023-02-01T08:50:26;5.50;99.90
53410;DHT22;66590;50.734;4.246;2023-02-01T08:52:54;5.50;99.90
53410;DHT22;66590;50.734;4.246;2023-02-01T08:55:21;5.50;99.90
53410;DHT22;66590;50.734;4.246;2023-02-01T08:57:48;5.50;99.90
53410;DHT22;66590;50.734;4.246;2023-02-01T09:00:16;5.60;99.90
53410;DHT22;66590;50.734;4.246;2023-02-01T09:02:45;5.60;99.90
53410;DHT22;66590;50.734;4.246;2023-02-01T09:05:13;5.70;99.90
53410;DHT22;66590;50.734;4.246;2023-02-01T09:07:40;5.70;99.90
53410;DHT22;66590;50.734;4.246;2023-02-01T09:10:07;5.80;99.90
53410;DHT22;66590;50.734;4.246;2023-02-01T09:12:35;5.90;99.90
53410;DHT22;66590;50.734;4.246;2023-02-01T09:15:03;5.90;99.90
53410;DHT22;66590;50.734;4.246;2023-02-01T09:17:30;5.90;99.90
53410;DHT22;66590;50.734;4.246;2023-02-01T09:19:58;6.00;99.90
53410;DHT22;66590;50.734;4.246;2023-02-01T09:22:25;5.90;99.90
53410;DHT22;66590;50.734;4.246;2023-02-01T09:24:53;6.00;99.90
53410;DHT22;66590;50.734;4.246;2023-02-01T09:27:22;5.90;99.90
53410;DHT22;66590;50.734;4.246;2023-02-01T09:29:49;5.90;99.90
53410;DHT22;66590;50.734;4.246;2023-02-01T09:32:16;6.00;99.90
53410;DHT22;66590;50.734;4.246;2023-02-01T09:34:43;6.00;99.90
53410;DHT22;66590;50.734;4.246;2023-02-01T09:37:11;6.10;99.90
53410;DHT22;66590;50.734;4.246;2023-02-01T09:39:42;6.10;99.90
53410;DHT22;66590;50.734;4.246;2023-02-01T09:42:19;6.20;99.90
53410;DHT22;66590;50.734;4.246;2023-02-01T09:45:10;6.20;99.90
53410;DHT22;66590;50.734;4.246;2023-02-01T09:47:48;6.30;99.90
53410;DHT22;66590;50.734;4.246;2023-02-01T09:50:20;6.40;99.90
53410;DHT22;66590;50.734;4.246;2023-02-01T09:52:55;6.50;99.90
53410;DHT22;66590;50.734;4.246;2023-02-01T09:55:32;6.40;99.90
53410;DHT22;66590;50.734;4.246;2023-02-01T09:58:03;6.50;99.90
53410;DHT22;66590;50.734;4.246;2023-02-01T10:00:34;6.60;99.90
53410;DHT22;66590;50.734;4.246;2023-02-01T10:03:02;6.60;99.90
53410;DHT22;66590;50.734;4.246;2023-02-01T10:05:40;6.70;99.90
53410;DHT22;66590;50.734;4.246;2023-02-01T10:08:19;6.80;99.90
53410;DHT22;66590;50.734;4.246;2023-02-01T10:10:50;6.90;99.90
53410;DHT22;66590;50.734;4.246;2023-02-01T10:13:33;6.90;99.90
53410;DHT22;66590;50.734;4.246;2023-02-01T10:16:10;7.00;99.90
53410;DHT22;66590;50.734;4.246;2023-02-01T10:18:49;7.10;99.90
53410;DHT22;66590;50.734;4.246;2023-02-01T10:21:29;7.20;99.90
53410;DHT22;66590;50.734;4.246;2023-02-01T10:24:28;7.20;99.90
53410;DHT22;66590;50.734;4.246;2023-02-01T10:27:07;7.40;99.90
53410;DHT22;66590;50.734;4.246;2023-02-01T10:29:38;7.60;99.90
53410;DHT22;66590;50.734;4.246;2023-02-01T10:32:15;7.60;99.90
53410;DHT22;66590;50.734;4.246;2023-02-01T10:34:45;7.80;99.90
53410;DHT22;66590;50.734;4.246;2023-02-01T10:37:22;7.80;99.90
53410;DHT22;66590;50.734;4.246;2023-02-01T10:39:53;7.80;99.90
53410;DHT22;66590;50.734;4.246;2023-02-01T10:42:25;7.90;99.90
53410;DHT22;66590;50.734;4.246;2023-02-01T10:44:55;8.00;99.90
53410;DHT22;66590;50.734;4.246;2023-02-01T10:47:23;7.90;99.90
53410;DHT22;66590;50.734;4.246;2023-02-01T10:49:56;8.00;99.90
53410;DHT22;66590;50.734;4.246;2023-02-01T10:52:36;8.10;99.90
53410;DHT22;66590;50.734;4.246;2023-02-01T10:55:31;8.10;99.90
53410;DHT22;66590;50.734;4.246;2023-02-01T10:58:00;8.20;99.90
53410;DHT22;66590;50.734;4.246;2023-02-01T11:00:29;8.20;99.90
53410;DHT22;66590;50.734;4.246;2023-02-01T11:03:20;8.30;99.90
53410;DHT22;66590;50.734;4.246;2023-02-01T11:05:48;8.50;99.90
53410;DHT22;66590;50.734;4.246;2023-02-01T11:08:17;8.70;99.90
53410;DHT22;66590;50.734;4.246;2023-02-01T11:10:46;8.80;99.90
53410;DHT22;66590;50.734;4.246;2023-02-01T11:13:15;8.90;99.90
53410;DHT22;66590;50.734;4.246;2023-02-01T11:15:44;9.00;99.90
53410;DHT22;66590;50.734;4.246;2023-02-01T11:18:17;8.90;99.90
53410;DHT22;66590;50.734;4.246;2023-02-01T11:20:47;8.90;99.90
53410;DHT22;66590;50.734;4.246;2023-02-01T11:23:15;9.00;99.90
53410;DHT22;66590;50.734;4.246;2023-02-01T11:25:49;8.80;99.90
53410;DHT22;66590;50.734;4.246;2023-02-01T11:28:18;8.80;99.90
53410;DHT22;66590;50.734;4.246;2023-02-01T11:30:48;9.00;99.90
53410;DHT22;66590;50.734;4.246;2023-02-01T11:33:17;9.20;99.90
53410;DHT22;66590;50.734;4.246;2023-02-01T11:35:46;9.50;99.90
53410;DHT22;66590;50.734;4.246;2023-02-01T11:38:21;9.80;99.90
53410;DHT22;66590;50.734;4.246;2023-02-01T11:40:49;9.80;99.90
53410;DHT22;66590;50.734;4.246;2023-02-01T11:43:23;9.70;99.90
53410;DHT22;66590;50.734;4.246;2023-02-01T11:45:55;9.60;99.90
53410;DHT22;66590;50.734;4.246;2023-02-01T11:48:25;9.70;99.90
53410;DHT22;66590;50.734;4.246;2023-02-01T11:51:04;9.90;99.90
53410;DHT22;66590;50.734;4.246;2023-02-01T11:53:46;9.80;99.90
53410;DHT22;66590;50.734;4.246;2023-02-01T11:56:28;9.60;99.90
53410;DHT22;66590;50.734;4.246;2023-02-01T11:59:22;9.60;99.90
53410;DHT22;66590;50.734;4.246;2023-02-01T12:02:07;9.70;99.90
53410;DHT22;66590;50.734;4.246;2023-02-01T12:05:04;9.90;99.90
53410;DHT22;66590;50.734;4.246;2023-02-01T12:07:47;10.00;99.90
53410;DHT22;66590;50.734;4.246;2023-02-01T12:10:23;10.00;99.90
53410;DHT22;66590;50.734;4.246;2023-02-01T12:13:01;9.80;99.90
53410;DHT22;66590;50.734;4.246;2023-02-01T12:15:44;9.80;99.90
53410;DHT22;66590;50.734;4.246;2023-02-01T12:18:47;9.90;99.90
53410;DHT22;66590;50.734;4.246;2023-02-01T12:21:32;10.10;99.90
53410;DHT22;66590;50.734;4.246;2023-02-01T12:24:19;10.00;99.90
53410;DHT22;66590;50.734;4.246;2023-02-01T12:27:01;9.90;99.90
53410;DHT22;66590;50.734;4.246;2023-02-01T12:29:47;10.20;99.90
53410;DHT22;66590;50.734;4.246;2023-02-01T12:32:25;10.30;99.90
53410;DHT22;66590;50.734;4.246;2023-02-01T12:35:25;10.10;99.90
53410;DHT22;66590;50.734;4.246;2023-02-01T12:38:08;9.90;99.90
53410;DHT22;66590;50.734;4.246;2023-02-01T12:40:48;9.90;99.90
53410;DHT22;66590;50.734;4.246;2023-02-01T12:43:20;9.90;99.90
53410;DHT22;66590;50.734;4.246;2023-02-01T12:45:53;10.10;99.90
53410;DHT22;66590;50.734;4.246;2023-02-01T12:48:29;10.20;99.90
53410;DHT22;66590;50.734;4.246;2023-02-01T12:51:01;10.30;99.90
53410;DHT22;66590;50.734;4.246;2023-02-01T12:53:46;10.30;99.90
53410;DHT22;66590;50.734;4.246;2023-02-01T12:56:21;10.20;99.90
53410;DHT22;66590;50.734;4.246;2023-02-01T12:58:51;10.10;99.90
53410;DHT22;66590;50.734;4.246;2023-02-01T13:01:24;10.00;99.90
53410;DHT22;66590;50.734;4.246;2023-02-01T13:03:58;9.90;99.90
53410;DHT22;66590;50.734;4.246;2023-02-01T13:06:31;10.00;99.90
53410;DHT22;66590;50.734;4.246;2023-02-01T13:09:03;10.10;99.90
53410;DHT22;66590;50.734;4.246;2023-02-01T13:11:33;10.10;99.90
53410;DHT22;66590;50.734;4.246;2023-02-01T13:14:05;10.20;99.90
53410;DHT22;66590;50.734;4.246;2023-02-01T13:16:40;10.20;99.90
53410;DHT22;66590;50.734;4.246;2023-02-01T13:19:14;10.00;99.90
53410;DHT22;66590;50.734;4.246;2023-02-01T13:21:46;10.00;99.90
53410;DHT22;66590;50.734;4.246;2023-02-01T13:24:33;10.20;99.90
53410;DHT22;66590;50.734;4.246;2023-02-01T13:27:03;10.10;99.90
53410;DHT22;66590;50.734;4.246;2023-02-01T13:29:30;10.20;99.90
53410;DHT22;66590;50.734;4.246;2023-02-01T13:32:11;10.20;99.90
53410;DHT22;66590;50.734;4.246;2023-02-01T13:34:53;10.20;99.90
53410;DHT22;66590;50.734;4.246;2023-02-01T13:37:39;10.10;99.90
53410;DHT22;66590;50.734;4.246;2023-02-01T13:40:23;10.10;99.90
53410;DHT22;66590;50.734;4.246;2023-02-01T13:42:55;10.20;99.90
53410;DHT22;66590;50.734;4.246;2023-02-01T13:45:26;10.20;99.90
53410;DHT22;66590;50.734;4.246;2023-02-01T13:47:58;10.10;99.90
53410;DHT22;66590;50.734;4.246;2023-02-01T13:50:27;10.20;99.90
53410;DHT22;66590;50.734;4.246;2023-02-01T13:52:58;10.40;99.90
53410;DHT22;66590;50.734;4.246;2023-02-01T13:55:29;10.40;99.90
53410;DHT22;66590;50.734;4.246;2023-02-01T13:58:06;10.40;99.90
53410;DHT22;66590;50.734;4.246;2023-02-01T14:00:37;10.20;99.90
53410;DHT22;66590;50.734;4.246;2023-02-01T14:03:12;10.30;99.90
53410;DHT22;66590;50.734;4.246;2023-02-01T14:06:00;10.30;99.90
53410;DHT22;66590;50.734;4.246;2023-02-01T14:08:42;10.30;99.90
53410;DHT22;66590;50.734;4.246;2023-02-01T14:11:31;10.40;99.90
53410;DHT22;66590;50.734;4.246;2023-02-01T14:23:21;10.30;99.90
53410;DHT22;66590;50.734;4.246;2023-02-01T14:26:05;10.40;99.90
53410;DHT22;66590;50.734;4.246;2023-02-01T14:28:36;10.20;99.90
53410;DHT22;66590;50.734;4.246;2023-02-01T14:31:24;10.20;99.90
53410;DHT22;66590;50.734;4.246;2023-02-01T14:33:56;10.30;99.90
53410;DHT22;66590;50.734;4.246;2023-02-01T14:36:24;10.40;99.90
53410;DHT22;66590;50.734;4.246;2023-02-01T14:38:53;10.20;99.90
53410;DHT22;66590;50.734;4.246;2023-02-01T14:41:31;10.20;99.90
53410;DHT22;66590;50.734;4.246;2023-02-01T14:44:26;10.20;99.90
53410;DHT22;66590;50.734;4.246;2023-02-01T14:47:28;10.20;99.90
53410;DHT22;66590;50.734;4.246;2023-02-01T14:50:03;10.20;99.90
53410;DHT22;66590;50.734;4.246;2023-02-01T14:52:33;10.10;99.90
53410;DHT22;66590;50.734;4.246;2023-02-01T14:55:05;10.10;99.90
53410;DHT22;66590;50.734;4.246;2023-02-01T14:57:36;10.10;99.90
53410;DHT22;66590;50.734;4.246;2023-02-01T15:00:14;10.10;99.90
53410;DHT22;66590;50.734;4.246;2023-02-01T15:02:43;10.00;99.90
53410;DHT22;66590;50.734;4.246;2023-02-01T15:05:30;9.90;99.90
53410;DHT22;66590;50.734;4.246;2023-02-01T15:08:03;9.90;99.90
53410;DHT22;66590;50.734;4.246;2023-02-01T15:10:42;9.80;99.90
53410;DHT22;66590;50.734;4.246;2023-02-01T15:13:22;9.70;99.90
53410;DHT22;66590;50.734;4.246;2023-02-01T15:16:09;9.70;99.90
53410;DHT22;66590;50.734;4.246;2023-02-01T15:18:37;9.70;99.90
53410;DHT22;66590;50.734;4.246;2023-02-01T15:21:06;9.60;99.90
53410;DHT22;66590;50.734;4.246;2023-02-01T15:24:12;9.60;99.90
53410;DHT22;66590;50.734;4.246;2023-02-01T15:26:40;9.60;99.90
53410;DHT22;66590;50.734;4.246;2023-02-01T15:29:11;9.60;99.90
53410;DHT22;66590;50.734;4.246;2023-02-01T15:31:39;9.60;99.90
53410;DHT22;66590;50.734;4.246;2023-02-01T15:34:10;9.60;99.90
53410;DHT22;66590;50.734;4.246;2023-02-01T15:36:38;9.60;99.90
53410;DHT22;66590;50.734;4.246;2023-02-01T15:39:17;9.50;99.90
53410;DHT22;66590;50.734;4.246;2023-02-01T15:41:48;9.50;99.90
53410;DHT22;66590;50.734;4.246;2023-02-01T15:44:31;9.50;99.90
53410;DHT22;66590;50.734;4.246;2023-02-01T15:46:59;9.50;99.90
53410;DHT22;66590;50.734;4.246;2023-02-01T15:49:28;9.50;99.90
53410;DHT22;66590;50.734;4.246;2023-02-01T15:51:57;9.50;99.90
53410;DHT22;66590;50.734;4.246;2023-02-01T15:54:28;9.40;99.90
53410;DHT22;66590;50.734;4.246;2023-02-01T15:57:00;9.40;99.90
53410;DHT22;66590;50.734;4.246;2023-02-01T15:59:35;9.30;99.90
53410;DHT22;66590;50.734;4.246;2023-02-01T16:02:04;9.30;99.90
53410;DHT22;66590;50.734;4.246;2023-02-01T16:04:49;9.40;99.90
53410;DHT22;66590;50.734;4.246;2023-02-01T16:07:25;9.40;99.90
53410;DHT22;66590;50.734;4.246;2023-02-01T16:09:54;9.40;99.90
53410;DHT22;66590;50.734;4.246;2023-02-01T16:12:28;9.30;99.90
53410;DHT22;66590;50.734;4.246;2023-02-01T16:14:56;9.30;99.90
53410;DHT22;66590;50.734;4.246;2023-02-01T16:17:22;9.30;99.90
53410;DHT22;66590;50.734;4.246;2023-02-01T16:19:50;9.30;99.90
53410;DHT22;66590;50.734;4.246;2023-02-01T16:22:17;9.30;99.90
53410;DHT22;66590;50.734;4.246;2023-02-01T16:24:45;9.30;99.90
53410;DHT22;66590;50.734;4.246;2023-02-01T16:27:12;9.20;99.90